Time;durP1;ratioP1;P1;durP2;ratioP2;P2;SDS_P1;SDS_P2;PMS_P1;PMS_P2;Temp;Humidity;BMP_temperature;BMP_pressure;BME280_temperature;BME280_humidity;BME280_pressure;Samples;Min_cycle;Max_cycle;Signal;HPM_P1;HPM_P2
2021/03/29 00:02:22;;;;;;;14.70;4.20;;;;;;;9.34;100.00;99228.50;5134690;27;20634;-70
2021/03/29 00:04:48;;;;;;;6.97;3.67;;;;;;;9.40;100.00;99220.97;5134204;27;20638;-71
2021/03/29 00:07:17;;;;;;;9.83;3.70;;;;;;;9.45;100.00;99218.13;5134145;27;20257;-71
2021/03/29 00:09:44;;;;;;;15.00;4.40;;;;;;;9.28;100.00;99213.19;5134184;27;20211;-71
2021/03/29 00:12:11;;;;;;;14.07;3.83;;;;;;;9.27;100.00;99211.53;5133895;27;20199;-70
2021/03/29 00:14:38;;;;;;;9.20;3.70;;;;;;;9.29;100.00;99219.50;5133794;27;20203;-70
2021/03/29 00:17:06;;;;;;;8.90;3.70;;;;;;;9.04;100.00;99218.00;5133369;27;20700;-70
2021/03/29 00:19:34;;;;;;;8.40;3.93;;;;;;;8.95;100.00;99219.81;5134159;27;20201;-70
2021/03/29 00:22:00;;;;;;;11.27;4.20;;;;;;;8.89;100.00;99221.81;5134250;27;20293;-70
2021/03/29 00:24:27;;;;;;;7.63;3.80;;;;;;;8.93;100.00;99222.03;5133790;27;20222;-70
2021/03/29 00:26:53;;;;;;;8.83;4.00;;;;;;;8.80;100.00;99220.84;5134017;27;20334;-70
2021/03/29 00:29:20;;;;;;;12.73;3.97;;;;;;;8.93;100.00;99227.53;5133556;27;20551;-71
2021/03/29 00:31:46;;;;;;;7.20;3.73;;;;;;;8.81;100.00;99227.19;5133723;27;20637;-70
2021/03/29 00:34:14;;;;;;;8.07;3.83;;;;;;;8.87;100.00;99224.06;5133750;27;20580;-70
2021/03/29 00:36:41;;;;;;;14.37;3.60;;;;;;;8.68;100.00;99230.69;5133373;27;20311;-70
2021/03/29 00:39:10;;;;;;;9.93;4.33;;;;;;;8.67;100.00;99231.78;5115089;27;20567;-70
2021/03/29 00:41:36;;;;;;;16.37;3.80;;;;;;;8.70;100.00;99240.31;5133576;27;20579;-70
2021/03/29 00:44:04;;;;;;;8.13;3.83;;;;;;;8.79;100.00;99232.19;5115158;27;20672;-71
2021/03/29 00:46:31;;;;;;;8.23;3.63;;;;;;;8.66;100.00;99236.50;5133449;27;20294;-71
2021/03/29 00:48:58;;;;;;;8.10;3.77;;;;;;;8.60;100.00;99234.09;5133517;27;20290;-71
2021/03/29 00:51:28;;;;;;;7.83;3.87;;;;;;;8.59;100.00;99233.31;5133613;27;20294;-70
2021/03/29 00:53:57;;;;;;;7.50;3.37;;;;;;;8.64;100.00;99244.22;5133327;27;20240;-72
2021/03/29 00:56:24;;;;;;;8.83;3.53;;;;;;;8.65;100.00;99248.59;5132205;27;20732;-70
2021/03/29 01:33:57;;;;;;;9.33;3.63;;;;;;;8.37;100.00;99251.50;5110072;27;21085;-70
2021/03/29 01:36:25;;;;;;;5.40;3.60;;;;;;;8.32;100.00;99254.31;5115198;28;20258;-71
2021/03/29 01:38:52;;;;;;;9.30;3.77;;;;;;;8.46;100.00;99249.72;5125136;28;20233;-71
2021/03/29 01:41:19;;;;;;;15.07;4.20;;;;;;;8.46;100.00;99252.47;5128090;28;20226;-71
2021/03/29 01:43:47;;;;;;;9.33;3.53;;;;;;;8.44;100.00;99255.53;5117834;28;20208;-71
2021/03/29 01:46:14;;;;;;;7.77;3.63;;;;;;;8.43;100.00;99255.81;5110288;28;20800;-71
2021/03/29 01:48:41;;;;;;;11.20;3.90;;;;;;;8.23;100.00;99252.19;5109934;28;20601;-71
2021/03/29 01:51:08;;;;;;;8.97;3.87;;;;;;;8.19;100.00;99251.13;5111844;28;20757;-73
2021/03/29 01:53:35;;;;;;;8.70;3.87;;;;;;;8.14;100.00;99253.94;5113619;28;20223;-70
2021/03/29 01:56:02;;;;;;;9.50;4.60;;;;;;;8.20;100.00;99263.78;5112210;28;20272;-70
2021/03/29 01:58:28;;;;;;;9.43;3.73;;;;;;;8.17;100.00;99258.06;5112648;28;20224;-70
2021/03/29 02:01:00;;;;;;;8.13;3.77;;;;;;;8.30;100.00;99256.53;5112998;28;20245;-70
2021/03/29 02:03:27;;;;;;;10.47;3.97;;;;;;;8.14;100.00;99264.94;5109310;28;20294;-71
2021/03/29 02:05:55;;;;;;;10.87;4.10;;;;;;;8.09;100.00;99262.28;5109267;28;20269;-72
2021/03/29 02:08:24;;;;;;;9.33;3.90;;;;;;;8.11;100.00;99259.22;5107815;28;20224;-71
2021/03/29 02:10:50;;;;;;;7.80;3.97;;;;;;;8.14;100.00;99264.13;5109300;28;20265;-70
2021/03/29 02:13:21;;;;;;;8.63;4.77;;;;;;;8.04;100.00;99267.84;5108871;28;20260;-70
2021/03/29 02:15:54;;;;;;;10.60;4.00;;;;;;;8.12;100.00;99263.59;5108102;28;20685;-71
2021/03/29 02:18:26;;;;;;;8.50;3.43;;;;;;;8.16;100.00;99264.66;5109361;28;20232;-71
2021/03/29 02:20:58;;;;;;;12.90;4.00;;;;;;;8.23;100.00;99260.44;5108947;28;20617;-70
2021/03/29 02:23:25;;;;;;;10.80;4.20;;;;;;;8.16;100.00;99268.22;5108778;28;20934;-70
2021/03/29 02:25:52;;;;;;;9.63;3.83;;;;;;;7.97;100.00;99275.59;5108692;28;20669;-72
2021/03/29 02:28:19;;;;;;;12.10;3.87;;;;;;;7.95;100.00;99269.59;5107637;28;20333;-70
2021/03/29 02:30:47;;;;;;;8.73;4.10;;;;;;;7.97;100.00;99285.78;5108706;28;20208;-70
2021/03/29 02:33:15;;;;;;;9.23;3.37;;;;;;;7.95;100.00;99277.84;5108743;28;20318;-71
2021/03/29 02:35:42;;;;;;;7.53;3.83;;;;;;;7.98;100.00;99282.75;5108810;28;20665;-70
2021/03/29 02:38:12;;;;;;;7.97;4.17;;;;;;;7.89;100.00;99276.25;5107755;28;20311;-71
2021/03/29 02:40:40;;;;;;;8.67;4.10;;;;;;;7.92;100.00;99283.91;5107562;28;20211;-71
2021/03/29 02:43:08;;;;;;;11.77;4.13;;;;;;;7.95;100.00;99277.84;5089234;28;20200;-71
2021/03/29 02:45:38;;;;;;;8.67;4.10;;;;;;;7.95;100.00;99277.00;5074890;28;20205;-72
2021/03/29 02:48:07;;;;;;;12.60;3.83;;;;;;;7.97;100.00;99275.59;5074940;28;20225;-71
2021/03/29 02:50:37;;;;;;;10.50;3.90;;;;;;;7.97;100.00;99275.59;5074511;28;20235;-71
2021/03/29 02:53:08;;;;;;;10.87;4.33;;;;;;;8.00;100.00;99277.78;5074514;28;20228;-71
2021/03/29 02:55:36;;;;;;;9.40;4.23;;;;;;;8.03;100.00;99279.94;5073274;28;20201;-71
2021/03/29 02:58:05;;;;;;;10.07;3.80;;;;;;;8.01;100.00;99287.66;5074513;28;20662;-70
2021/03/29 03:00:33;;;;;;;8.67;3.50;;;;;;;7.89;100.00;99290.00;5072846;28;20731;-70
2021/03/29 03:03:01;;;;;;;8.73;4.20;;;;;;;7.88;100.00;99293.03;5074682;28;20197;-71
2021/03/29 03:05:32;;;;;;;9.77;3.53;;;;;;;7.86;100.00;99285.09;5073603;28;20208;-71
2021/03/29 03:08:00;;;;;;;9.67;3.80;;;;;;;7.96;100.00;99289.63;5074666;28;20320;-71
2021/03/29 03:10:28;;;;;;;9.07;3.50;;;;;;;8.10;100.00;99290.59;5074718;28;20858;-70
2021/03/29 03:12:56;;;;;;;14.57;4.73;;;;;;;8.09;100.00;99289.75;5074164;28;20316;-70
2021/03/29 03:15:24;;;;;;;8.10;3.90;;;;;;;8.07;100.00;99296.66;5074783;28;20920;-70
2021/03/29 03:17:52;;;;;;;8.57;3.97;;;;;;;8.16;100.00;99298.47;5074285;28;20255;-70
2021/03/29 03:20:19;;;;;;;6.93;3.63;;;;;;;8.20;100.00;99302.28;5074740;28;20714;-71
2021/03/29 03:22:59;;;;;;;8.10;3.83;;;;;;;8.16;100.00;99294.91;5056428;28;20201;-70
2021/03/29 03:25:31;;;;;;;8.60;4.20;;;;;;;8.20;100.00;99294.03;5072623;28;20220;-71
2021/03/29 03:28:00;;;;;;;9.93;4.03;;;;;;;8.25;100.00;99295.13;5072729;28;20773;-70
2021/03/29 03:30:29;;;;;;;8.20;3.83;;;;;;;8.39;100.00;99304.28;5091178;28;20291;-70
2021/03/29 03:32:56;;;;;;;10.13;3.93;;;;;;;8.20;100.00;99301.44;5094272;28;20250;-71
2021/03/29 03:35:24;;;;;;;9.50;3.43;;;;;;;8.26;100.00;99302.25;5094428;28;20291;-71
2021/03/29 03:38:00;;;;;;;9.50;4.13;;;;;;;8.13;100.00;99299.06;5094213;28;20756;-71
2021/03/29 03:40:28;;;;;;;11.23;3.87;;;;;;;7.83;100.00;99307.63;5094272;28;20268;-71
2021/03/29 03:42:59;;;;;;;8.23;3.73;;;;;;;7.63;100.00;99307.84;5073098;28;20211;-71
2021/03/29 03:45:30;;;;;;;8.00;3.77;;;;;;;8.00;100.00;99302.50;5073810;28;20240;-72
2021/03/29 03:47:59;;;;;;;12.33;3.87;;;;;;;8.12;100.00;99304.84;5074259;28;20264;-71
2021/03/29 03:50:25;;;;;;;13.03;4.57;;;;;;;7.75;100.00;99313.78;5074032;28;20235;-70
2021/03/29 03:52:53;;;;;;;6.73;3.80;;;;;;;7.63;100.00;99302.34;5073777;28;20260;-71
2021/03/29 03:55:21;;;;;;;7.13;4.00;;;;;;;7.47;100.00;99300.03;5075185;28;20205;-71
2021/03/29 03:57:48;;;;;;;10.90;4.17;;;;;;;7.65;100.00;99307.53;5073893;28;20232;-71
2021/03/29 04:00:16;;;;;;;8.87;3.93;;;;;;;7.27;100.00;99308.44;5073568;28;20201;-71
2021/03/29 04:02:45;;;;;;;7.27;3.27;;;;;;;7.24;100.00;99314.53;5073865;28;20236;-71
2021/03/29 04:05:12;;;;;;;13.40;4.90;;;;;;;6.94;100.00;99321.03;5073471;28;20233;-70
2021/03/29 04:07:59;;;;;;;11.63;5.13;;;;;;;6.91;100.00;99322.44;5073452;28;20239;-70
2021/03/29 04:13:10;;;;;;;13.43;4.60;;;;;;;7.90;100.00;99321.06;5075975;28;20255;-71
2021/03/29 04:15:36;;;;;;;12.13;4.87;;;;;;;7.81;100.00;99315.34;5089121;28;20686;-70
2021/03/29 04:18:03;;;;;;;11.27;4.30;;;;;;;7.22;100.00;99316.72;5087882;28;20236;-71
2021/03/29 04:20:30;;;;;;;9.93;4.60;;;;;;;7.01;100.00;99316.88;5087164;28;20267;-71
2021/03/29 04:22:57;;;;;;;8.47;4.30;;;;;;;7.01;100.00;99316.88;5076186;28;20197;-70
2021/03/29 04:25:23;;;;;;;8.27;4.30;;;;;;;6.95;100.00;99320.75;5074790;28;20284;-70
2021/03/29 04:27:49;;;;;;;11.87;4.60;;;;;;;6.96;100.00;99327.91;5071645;28;20239;-71
2021/03/29 04:30:16;;;;;;;8.40;4.47;;;;;;;6.90;100.00;99325.44;5087548;28;20200;-70
2021/03/29 04:32:46;;;;;;;12.57;4.30;;;;;;;6.85;100.00;99330.97;5092454;28;20224;-70
2021/03/29 04:35:14;;;;;;;14.63;4.70;;;;;;;7.59;100.00;99334.25;5092953;28;20236;-72
2021/03/29 04:37:40;;;;;;;13.07;5.03;;;;;;;7.69;100.00;99334.16;5092210;28;20293;-71
2021/03/29 04:40:07;;;;;;;9.27;4.60;;;;;;;7.40;100.00;99335.25;5092444;28;20278;-69
2021/03/29 04:42:33;;;;;;;8.80;4.37;;;;;;;7.06;100.00;99336.03;5072757;28;20743;-70
2021/03/29 04:44:59;;;;;;;10.70;4.27;;;;;;;7.12;100.00;99336.84;5072148;28;20742;-68
2021/03/29 04:47:25;;;;;;;10.00;4.40;;;;;;;6.73;100.00;99342.28;5072567;28;20248;-68
2021/03/29 04:49:52;;;;;;;15.63;4.37;;;;;;;6.69;100.00;99345.91;5072329;28;20294;-69
2021/03/29 04:52:18;;;;;;;8.73;3.90;;;;;;;6.92;100.00;99336.97;5072652;28;20589;-69
2021/03/29 04:54:44;;;;;;;10.60;4.77;;;;;;;6.89;100.00;99345.78;5072179;28;20212;-69
2021/03/29 04:57:11;;;;;;;11.50;4.43;;;;;;;6.90;100.00;99342.75;5072427;28;20225;-70
2021/03/29 04:59:37;;;;;;;9.30;4.93;;;;;;;7.41;100.00;99345.94;5072047;28;20209;-70
2021/03/29 05:02:04;;;;;;;11.23;4.97;;;;;;;7.67;100.00;99347.38;5071640;28;20212;-70
2021/03/29 05:04:30;;;;;;;11.07;4.23;;;;;;;7.58;100.00;99354.59;5071447;28;20255;-71
2021/03/29 05:06:55;;;;;;;11.00;4.43;;;;;;;7.48;100.00;99349.19;5071812;28;20225;-70
2021/03/29 05:09:21;;;;;;;13.20;5.77;;;;;;;7.37;100.00;99349.56;5070718;28;20205;-70
2021/03/29 05:14:14;;;;;;;10.93;4.47;;;;;;;7.16;100.00;99351.63;5071575;28;20624;-71
2021/03/29 05:16:41;;;;;;;10.10;4.50;;;;;;;7.28;100.00;99354.81;5071390;28;20655;-71
2021/03/29 05:19:07;;;;;;;11.77;4.47;;;;;;;7.23;100.00;99357.63;5071705;28;20245;-70
2021/03/29 05:21:33;;;;;;;11.30;4.80;;;;;;;7.15;100.00;99361.78;5071847;28;20292;-71
2021/03/29 05:23:59;;;;;;;11.00;4.80;;;;;;;7.39;100.00;99367.38;5071367;28;20287;-71
2021/03/29 05:26:25;;;;;;;8.43;4.10;;;;;;;7.18;100.00;99371.38;5072416;28;20283;-71
2021/03/29 05:28:51;;;;;;;12.00;5.17;;;;;;;7.21;100.00;99365.31;5075626;28;20620;-71
2021/03/29 05:31:17;;;;;;;11.87;3.97;;;;;;;7.42;100.00;99366.81;5090944;28;20204;-71
2021/03/29 05:33:43;;;;;;;15.13;4.80;;;;;;;7.71;100.00;99364.09;5090436;28;20227;-70
2021/03/29 05:36:13;;;;;;;12.70;4.40;;;;;;;8.48;100.00;99368.53;5090946;28;20583;-70
2021/03/29 05:38:41;;;;;;;13.23;4.90;;;;;;;8.66;100.00;99370.50;5091594;28;20240;-71
2021/03/29 05:41:12;;;;;;;13.70;4.63;;;;;;;8.55;100.00;99374.50;5084935;28;20274;-71
2021/03/29 05:43:43;;;;;;;11.70;4.47;;;;;;;8.72;100.00;99374.84;5071441;28;20670;-70
2021/03/29 05:46:10;;;;;;;12.17;4.60;;;;;;;9.10;100.00;99371.81;5071387;28;20209;-72
2021/03/29 05:48:37;;;;;;;10.47;5.17;;;;;;;8.94;100.00;99377.84;5078203;28;20216;-70
2021/03/29 05:51:05;;;;;;;9.37;4.10;;;;;;;9.18;100.00;99373.91;5091669;28;20707;-71
2021/03/29 05:53:31;;;;;;;10.27;4.90;;;;;;;10.08;100.00;99368.81;5073628;28;20311;-71
2021/03/29 05:56:00;;;;;;;13.33;4.57;;;;;;;9.94;100.00;99375.44;5092096;28;20215;-71
2021/03/29 06:00:54;;;;;;;11.03;4.40;;;;;;;9.42;100.00;99379.31;5082282;28;20238;-70
2021/03/29 06:03:28;;;;;;;15.23;4.77;;;;;;;9.67;100.00;99372.59;5071627;28;20205;-71
2021/03/29 06:05:58;;;;;;;12.33;4.80;;;;;;;11.07;100.00;99366.28;5080516;28;20204;-70
2021/03/29 06:08:26;;;;;;;12.47;4.60;;;;;;;10.80;100.00;99371.84;5090651;28;20224;-69
2021/03/29 06:10:54;;;;;;;14.03;4.53;;;;;;;11.15;100.00;99368.28;5089507;28;20292;-70
2021/03/29 06:13:29;;;;;;;16.33;4.40;;;;;;;10.20;100.00;99380.19;5089019;28;20223;-71
2021/03/29 06:16:12;;;;;;;14.77;4.23;;;;;;;11.71;100.00;99378.88;5089545;28;20243;-70
2021/03/29 06:18:49;;;;;;;14.67;4.30;;;;;;;12.03;100.00;99378.59;5090019;28;20224;-71
2021/03/29 06:21:16;;;;;;;12.10;4.33;;;;;;;13.39;100.00;99372.75;5093625;28;20608;-70
2021/03/29 06:23:57;;;;;;;9.40;4.27;;;;;;;13.32;100.00;99375.16;5092692;28;20237;-73
2021/03/29 06:26:27;;;;;;;13.87;4.57;;;;;;;13.06;100.00;99379.88;5093402;28;20239;-72
2021/03/29 06:28:54;;;;;;;12.87;4.53;;;;;;;13.30;100.00;99384.97;5093516;28;20618;-72
2021/03/29 06:31:33;;;;;;;13.83;4.67;;;;;;;12.29;100.00;99385.09;5092570;28;20204;-73
2021/03/29 06:34:01;;;;;;;10.63;5.07;;;;;;;12.15;100.00;99387.94;5089054;28;20646;-71
2021/03/29 06:36:29;;;;;;;10.27;4.40;;;;;;;13.52;100.00;99388.38;5093266;28;20232;-72
2021/03/29 06:39:13;;;;;;;9.93;4.50;;;;;;;13.56;100.00;99378.28;5093109;28;20299;-73
2021/03/29 06:41:40;;;;;;;12.47;4.40;;;;;;;12.90;100.00;99386.97;5093302;28;20201;-72
2021/03/29 06:44:24;;;;;;;12.30;4.63;;;;;;;13.30;100.00;99374.69;5091498;28;20666;-72
2021/03/29 06:47:02;;;;;;;8.07;4.03;;;;;;;13.33;100.00;99374.03;5072796;28;20267;-71
2021/03/29 06:49:38;;;;;;;10.87;4.63;;;;;;;13.61;100.00;99363.44;5072490;28;20254;-73
2021/03/29 06:52:21;;;;;;;20.88;4.70;;;;;;;14.38;100.00;99385.53;5108169;28;20204;-73
2021/03/29 06:54:47;;;;;;;14.77;4.75;;;;;;;14.60;100.00;99374.16;5110684;28;20345;-74
2021/03/29 06:57:13;;;;;;;11.73;4.20;;;;;;;15.45;100.00;99365.34;5108279;28;20225;-73
2021/03/29 06:59:39;;;;;;;17.08;4.47;;;;;;;15.83;100.00;99376.31;5092899;28;20292;-72
2021/03/29 07:02:07;;;;;;;12.52;4.18;;;;;;;16.55;100.00;99367.38;5092940;28;20642;-71
2021/03/29 07:04:37;;;;;;;17.10;4.50;;;;;;;15.67;100.00;99366.97;5091484;28;20227;-72
2021/03/29 07:07:04;;;;;;;14.20;4.18;;;;;;;15.83;100.00;99371.56;5092959;28;20308;-73
2021/03/29 07:09:33;;;;;;;15.43;4.90;;;;;;;15.32;100.00;99377.50;5093859;28;20244;-74
2021/03/29 07:12:01;;;;;;;19.73;4.72;;;;;;;17.05;100.00;99365.88;5091933;28;20257;-72
2021/03/29 07:14:27;;;;;;;16.90;4.88;;;;;;;16.98;100.00;99370.41;5091703;28;20303;-73
2021/03/29 07:16:55;;;;;;;14.07;4.97;;;;;;;17.11;100.00;99380.41;5092934;28;20254;-73
2021/03/29 07:19:22;;;;;;;9.40;4.65;;;;;;;16.00;100.00;99379.72;5092709;28;20208;-72
2021/03/29 07:21:48;;;;;;;18.92;5.20;;;;;;;16.34;100.00;99386.94;5091570;28;20240;-72
2021/03/29 07:24:15;;;;;;;17.08;4.90;;;;;;;15.71;100.00;99384.59;5092295;28;20200;-73
2021/03/29 07:26:41;;;;;;;17.50;4.70;;;;;;;16.88;100.00;99391.19;5092656;28;20271;-73
2021/03/29 07:29:34;;;;;;;15.32;4.80;;;;;;;16.95;100.00;99396.22;5093319;28;20345;-73
2021/03/29 07:32:05;;;;;;;15.27;5.10;;;;;;;17.43;100.00;99395.34;5098970;28;20216;-71
2021/03/29 07:34:47;;;;;;;27.00;4.70;;;;;;;16.54;100.00;99391.63;5104222;28;20215;-74
2021/03/29 07:37:34;;;;;;;12.35;4.30;;;;;;;14.98;100.00;99397.22;5101934;28;20225;-73
2021/03/29 07:40:23;;;;;;;11.25;4.85;;;;;;;15.95;100.00;99393.88;5094809;28;20201;-73
2021/03/29 07:42:51;;;;;;;11.18;4.72;;;;;;;17.33;100.00;99393.88;5094481;28;20289;-74
2021/03/29 07:45:20;;;;;;;10.25;4.47;;;;;;;18.43;100.00;99395.16;5094534;28;20879;-74
2021/03/29 07:47:57;;;;;;;9.40;4.80;;;;;;;17.63;100.00;99403.59;5095150;28;20224;-72
2021/03/29 07:50:24;;;;;;;10.93;4.07;;;;;;;19.88;100.00;99397.50;5093783;28;20210;-72
2021/03/29 07:52:52;;;;;;;13.05;4.40;;;;;;;19.18;100.00;99407.88;5091479;28;20205;-72
2021/03/29 07:55:34;;;;;;;9.80;4.00;;;;;;;19.44;100.00;99401.72;5092253;28;20317;-71
2021/03/29 07:58:06;;;;;;;9.88;4.40;;;;;;;20.25;93.01;99406.31;5092227;28;20674;-72
2021/03/29 08:00:35;;;;;;;12.98;4.25;;;;;;;18.75;100.00;99416.38;5091790;28;20208;-72
2021/03/29 08:03:21;;;;;;;10.13;4.10;;;;;;;20.32;96.01;99400.84;5091077;28;20228;-72
2021/03/29 08:05:49;;;;;;;8.48;4.10;;;;;;;19.37;99.83;99409.94;5091239;28;20634;-73
2021/03/29 08:08:32;;;;;;;15.77;4.30;;;;;;;18.50;100.00;99409.31;5091702;28;20256;-71
2021/03/29 08:11:10;;;;;;;9.98;4.40;;;;;;;20.13;99.24;99391.22;5091043;28;20212;-71
2021/03/29 08:13:50;;;;;;;9.93;3.85;;;;;;;19.39;92.92;99405.63;5090441;28;20197;-72
2021/03/29 08:16:17;;;;;;;11.07;4.15;;;;;;;21.52;86.22;99396.13;5088318;28;20291;-72
2021/03/29 08:19:47;;;;;;;7.07;3.88;;;;;;;22.27;74.92;99387.50;5090447;28;20232;-70
2021/03/29 08:22:09;;;;;;;7.32;4.30;;;;;;;20.87;76.58;99401.09;5087716;28;20234;-72
2021/03/29 08:24:47;;;;;;;11.98;4.18;;;;;;;22.38;71.78;99405.31;5090616;28;20227;-71
2021/03/29 08:27:17;;;;;;;9.55;3.92;;;;;;;22.33;66.68;99413.28;5090116;28;20282;-71
2021/03/29 08:29:53;;;;;;;9.13;3.75;;;;;;;23.12;64.14;99408.88;5089528;28;20238;-71
2021/03/29 08:32:30;;;;;;;8.15;3.30;;;;;;;23.08;61.04;99414.47;5089496;28;20223;-72
2021/03/29 08:35:04;;;;;;;11.30;4.25;;;;;;;23.71;59.56;99400.09;5090278;28;20673;-72
2021/03/29 08:37:36;;;;;;;14.32;4.15;;;;;;;22.85;60.23;99399.81;5090972;28;20252;-73
2021/03/29 08:40:17;;;;;;;10.02;3.60;;;;;;;23.86;55.02;99404.63;5089176;28;20760;-72
2021/03/29 08:42:46;;;;;;;11.82;3.70;;;;;;;23.97;52.42;99397.00;5090248;28;20355;-71
2021/03/29 08:45:15;;;;;;;10.15;3.25;;;;;;;23.90;55.05;99408.25;5090582;28;20270;-71
2021/03/29 08:47:43;;;;;;;9.15;3.40;;;;;;;24.42;50.62;99400.41;5090005;28;20347;-72
2021/03/29 08:50:16;;;;;;;6.93;4.10;;;;;;;24.85;49.27;99399.34;5094686;28;20240;-71
2021/03/29 08:52:43;;;;;;;10.40;3.60;;;;;;;24.86;47.74;99403.78;5090525;28;20204;-73
2021/03/29 08:55:14;;;;;;;7.93;3.17;;;;;;;25.16;46.58;99409.88;5090390;28;20208;-73
2021/03/29 08:57:41;;;;;;;9.35;3.30;;;;;;;24.13;48.55;99395.88;5089544;28;20311;-73
2021/03/29 09:00:11;;;;;;;7.38;3.20;;;;;;;23.32;49.30;99401.03;5090381;28;20205;-73
2021/03/29 09:02:38;;;;;;;5.35;3.20;;;;;;;24.22;49.45;99404.78;5090233;28;20252;-73
2021/03/29 09:05:07;;;;;;;7.05;3.03;;;;;;;24.41;48.41;99410.94;5090517;28;20212;-73
2021/03/29 09:07:37;;;;;;;12.45;3.10;;;;;;;24.59;50.10;99405.31;5090738;28;20231;-73
2021/03/29 09:10:16;;;;;;;8.45;3.38;;;;;;;23.23;51.26;99406.97;5089238;28;20231;-73
2021/03/29 09:12:43;;;;;;;9.45;3.22;;;;;;;23.19;51.96;99411.78;5090380;28;20226;-73
2021/03/29 09:15:15;;;;;;;6.22;3.28;;;;;;;22.53;56.72;99409.09;5090323;28;20208;-73
2021/03/29 09:17:42;;;;;;;6.82;3.35;;;;;;;22.52;57.12;99413.91;5090893;28;20256;-72
2021/03/29 09:20:26;;;;;;;12.85;3.70;;;;;;;22.73;63.71;99402.91;5090526;28;20204;-73
2021/03/29 09:22:53;;;;;;;7.57;3.47;;;;;;;24.29;54.93;99402.03;5090856;28;20239;-73
2021/03/29 09:25:39;;;;;;;17.70;3.30;;;;;;;22.75;55.20;99408.97;5088941;28;20299;-72
2021/03/29 09:31:15;;;;;;;10.30;3.67;;;;;;;22.49;58.65;99405.44;5090919;28;20224;-71
2021/03/29 09:33:43;;;;;;;11.02;3.85;;;;;;;23.77;65.14;99406.97;5099711;28;20232;-71
2021/03/29 09:36:14;;;;;;;16.15;4.05;;;;;;;24.28;56.99;99404.03;5112923;28;20236;-72
2021/03/29 09:38:43;;;;;;;14.90;4.03;;;;;;;22.61;61.13;99399.56;5108409;28;20232;-71
2021/03/29 09:41:17;;;;;;;20.80;4.40;;;;;;;23.14;62.51;99398.03;5100025;28;20223;-73
2021/03/29 09:43:45;;;;;;;12.88;4.65;;;;;;;23.59;68.29;99394.78;5083182;28;20243;-73
2021/03/29 09:46:11;;;;;;;17.02;3.90;;;;;;;23.17;60.77;99402.91;5069951;28;20353;-72
2021/03/29 09:48:37;;;;;;;18.90;4.00;;;;;;;23.89;68.11;99389.72;5077186;28;20244;-73
2021/03/29 09:51:22;;;;;;;13.52;4.13;;;;;;;23.94;64.01;99388.53;5089448;28;20213;-72
2021/03/29 09:53:48;;;;;;;21.33;4.57;;;;;;;22.32;71.34;99397.59;5089564;28;20563;-71
2021/03/29 09:56:30;;;;;;;18.60;4.40;;;;;;;22.92;69.31;99387.78;5093110;28;20254;-70
2021/03/29 09:58:56;;;;;;;16.40;4.78;;;;;;;22.38;64.80;99393.25;5092409;28;20259;-71
2021/03/29 10:01:25;;;;;;;17.00;4.50;;;;;;;22.99;65.72;99394.28;5093090;28;20217;-71
2021/03/29 10:03:55;;;;;;;14.50;4.68;;;;;;;23.21;65.10;99389.63;5093125;28;20228;-69
2021/03/29 10:06:26;;;;;;;9.90;4.35;;;;;;;22.62;70.73;99390.75;5093021;28;20625;-70
2021/03/29 10:09:00;;;;;;;14.55;4.40;;;;;;;22.71;66.15;99379.16;5093340;28;20208;-72
2021/03/29 10:11:27;;;;;;;15.00;4.72;;;;;;;21.02;73.66;99385.31;5092571;28;20668;-72
2021/03/29 10:14:06;;;;;;;17.15;3.97;;;;;;;22.09;74.69;99378.06;5092202;28;20269;-72
2021/03/29 10:16:33;;;;;;;9.77;3.63;;;;;;;23.05;73.45;99375.03;5091692;28;20669;-71
2021/03/29 10:19:10;;;;;;;15.10;3.80;;;;;;;23.20;71.58;99364.69;5093159;28;20742;-71
2021/03/29 10:21:58;;;;;;;16.33;3.90;;;;;;;23.61;62.57;99361.34;5093148;28;20236;-71
2021/03/29 10:24:25;;;;;;;9.45;3.40;;;;;;;23.70;62.26;99358.97;5092260;28;20263;-69
2021/03/29 10:27:06;;;;;;;10.43;4.18;;;;;;;22.93;61.88;99367.72;5092533;28;20227;-73
2021/03/29 10:29:40;;;;;;;13.90;4.88;;;;;;;22.68;66.64;99360.25;5092411;28;20639;-71
2021/03/29 10:32:08;;;;;;;14.52;4.47;;;;;;;22.34;66.71;99355.81;5093137;28;20742;-71
2021/03/29 10:34:38;;;;;;;9.38;3.92;;;;;;;22.26;69.16;99348.50;5092257;28;20205;-71
2021/03/29 10:37:36;;;;;;;11.68;4.38;;;;;;;22.66;66.50;99338.06;5094027;28;20805;-73
2021/03/29 10:40:04;;;;;;;11.80;2.72;;;;;;;22.14;57.31;99341.97;5091306;28;20303;-71
2021/03/29 10:42:33;;;;;;;9.55;2.60;;;;;;;22.33;53.68;99337.31;5093406;28;20204;-75
2021/03/29 10:45:01;;;;;;;6.93;2.60;;;;;;;22.26;51.17;99337.25;5093278;28;20208;-75
2021/03/29 10:47:27;;;;;;;5.13;2.47;;;;;;;22.07;55.14;99336.25;5094014;28;20274;-75
2021/03/29 10:49:53;;;;;;;7.32;2.33;;;;;;;22.01;53.35;99329.34;5095345;28;20708;-74
2021/03/29 10:52:21;;;;;;;6.93;2.40;;;;;;;22.27;54.42;99328.44;5088819;28;20253;-74
2021/03/29 10:54:49;;;;;;;7.43;2.53;;;;;;;22.02;52.34;99328.13;5094459;28;20322;-74
2021/03/29 10:57:15;;;;;;;8.13;2.67;;;;;;;22.09;52.56;99333.06;5096462;28;20232;-73
2021/03/29 10:59:41;;;;;;;8.00;2.65;;;;;;;22.12;52.31;99330.28;5095412;28;20712;-73
2021/03/29 11:02:08;;;;;;;10.75;2.60;;;;;;;21.56;52.56;99332.38;5092451;28;20212;-74
2021/03/29 11:04:35;;;;;;;6.28;3.20;;;;;;;22.02;55.89;99324.53;5093103;28;20234;-73
2021/03/29 11:07:02;;;;;;;7.88;2.70;;;;;;;22.14;58.12;99324.25;5077596;28;20228;-74
2021/03/29 11:09:28;;;;;;;7.43;3.05;;;;;;;21.91;53.79;99338.47;5093242;28;20583;-72
2021/03/29 11:11:55;;;;;;;6.72;3.38;;;;;;;21.90;54.46;99339.66;5090797;28;20308;-73
2021/03/29 11:14:21;;;;;;;7.90;2.60;;;;;;;22.11;53.92;99337.13;5090956;28;20209;-73
2021/03/29 11:16:50;;;;;;;9.90;2.65;;;;;;;22.11;54.12;99336.28;5092103;28;20274;-74
2021/03/29 11:19:19;;;;;;;7.32;3.10;;;;;;;21.63;54.51;99326.84;5075453;28;20208;-74
2021/03/29 11:21:48;;;;;;;5.85;2.58;;;;;;;21.53;54.01;99333.09;5086417;28;20205;-74
2021/03/29 11:24:17;;;;;;;7.18;3.00;;;;;;;21.61;54.93;99317.97;5083046;28;20685;-73
2021/03/29 11:26:43;;;;;;;7.30;2.63;;;;;;;22.10;58.61;99307.34;5081113;28;20224;-74
2021/03/29 11:29:09;;;;;;;8.25;3.13;;;;;;;22.23;56.90;99309.88;5081319;28;20200;-73
2021/03/29 11:31:41;;;;;;;8.80;2.70;;;;;;;22.21;53.88;99301.84;5095272;28;20214;-75
2021/03/29 11:34:08;;;;;;;6.55;2.20;;;;;;;21.94;48.83;99312.41;5090371;28;20208;-75
2021/03/29 11:36:35;;;;;;;9.68;2.47;;;;;;;21.75;52.37;99306.91;5092502;28;20280;-75
2021/03/29 11:39:06;;;;;;;6.15;3.10;;;;;;;21.89;53.45;99307.13;5091238;28;20653;-74
2021/03/29 11:41:32;;;;;;;6.68;2.70;;;;;;;22.09;51.18;99302.13;5082146;28;20635;-74
2021/03/29 11:43:59;;;;;;;5.60;2.15;;;;;;;22.05;52.86;99302.09;5070068;28;20233;-73
2021/03/29 11:46:25;;;;;;;6.15;2.10;;;;;;;21.70;49.14;99304.44;5071654;28;20437;-76
2021/03/29 11:48:51;;;;;;;7.55;2.88;;;;;;;21.89;50.62;99307.13;5071907;28;20683;-73
2021/03/29 11:51:18;;;;;;;9.57;2.70;;;;;;;21.85;47.88;99299.81;5071492;28;20674;-74
2021/03/29 11:53:44;;;;;;;5.60;2.25;;;;;;;21.60;47.85;99293.88;5069243;28;20201;-72
2021/03/29 11:56:10;;;;;;;4.15;2.20;;;;;;;21.27;47.54;99290.22;5072406;28;20210;-74
2021/03/29 11:58:36;;;;;;;7.70;2.17;;;;;;;21.55;48.63;99297.00;5069239;28;20322;-73
2021/03/29 12:01:13;;;;;;;12.10;2.53;;;;;;;21.82;51.37;99292.19;5073198;28;20212;-72
2021/03/29 12:03:45;;;;;;;6.78;2.35;;;;;;;21.68;47.87;99292.78;5072610;28;20221;-72
2021/03/29 12:06:16;;;;;;;8.57;2.65;;;;;;;21.52;49.07;99282.91;5073281;28;20206;-74
2021/03/29 12:08:51;;;;;;;8.45;2.30;;;;;;;21.59;48.92;99286.63;5073448;28;20225;-75
2021/03/29 12:14:06;;;;;;;10.15;2.95;;;;;;;21.62;51.43;99285.06;5093784;28;20227;-74
2021/03/29 12:16:40;;;;;;;7.18;2.17;;;;;;;21.61;47.18;99278.63;5092957;28;20193;-73
2021/03/29 12:19:06;;;;;;;8.02;2.30;;;;;;;21.29;46.20;99285.03;5078391;28;20292;-75
2021/03/29 12:21:35;;;;;;;7.43;1.98;;;;;;;21.36;46.26;99285.13;5074185;28;20286;-72
2021/03/29 12:24:08;;;;;;;7.35;1.88;;;;;;;21.78;45.97;99286.47;5075664;28;20316;-74
2021/03/29 12:26:35;;;;;;;5.35;2.40;;;;;;;21.36;47.25;99279.50;5078733;28;20205;-73
2021/03/29 12:29:07;;;;;;;4.30;1.90;;;;;;;21.52;47.26;99280.94;5080869;28;20204;-73